createdAt,value
2022-08-26T00:00:55.920Z,7.90
2022-08-26T00:01:55.975Z,7.60
2022-08-26T00:02:55.875Z,7.90
2022-08-26T00:03:55.847Z,7.70
2022-08-26T00:04:55.751Z,7.60
2022-08-26T00:05:55.708Z,8.30
2022-08-26T00:06:55.860Z,7.90
2022-08-26T00:07:55.622Z,7.70
2022-08-26T00:08:55.578Z,7.70
2022-08-26T00:09:55.543Z,7.90
2022-08-26T00:10:55.492Z,8.40
2022-08-26T00:11:55.451Z,8.10
2022-08-26T00:12:55.410Z,8.20
2022-08-26T00:13:55.369Z,7.60
2022-08-26T00:14:55.324Z,7.50
2022-08-26T00:15:55.283Z,7.70
2022-08-26T00:16:55.288Z,7.90
2022-08-26T00:17:55.199Z,7.80
2022-08-26T00:18:55.157Z,7.50
2022-08-26T00:19:55.116Z,8.70
2022-08-26T00:20:55.068Z,7.50
2022-08-26T00:21:55.026Z,8.00
2022-08-26T00:22:54.981Z,7.90
2022-08-26T00:23:54.954Z,8.60
2022-08-26T00:24:54.897Z,8.00
2022-08-26T00:25:54.876Z,7.90
2022-08-26T00:26:54.812Z,8.10
2022-08-26T00:27:54.770Z,7.80
2022-08-26T00:28:54.729Z,8.40
2022-08-26T00:29:54.686Z,8.40
2022-08-26T00:30:54.664Z,8.80
2022-08-26T00:31:54.655Z,8.10
2022-08-26T00:32:54.558Z,8.70
2022-08-26T00:33:54.516Z,8.10
2022-08-26T00:34:54.471Z,7.50
2022-08-26T00:35:54.430Z,8.40
2022-08-26T00:36:54.386Z,8.00
2022-08-26T00:37:54.344Z,8.10
2022-08-26T00:38:54.299Z,7.90
2022-08-26T00:39:54.261Z,8.30
2022-08-26T00:40:54.214Z,7.70
2022-08-26T00:41:54.175Z,7.20
2022-08-26T00:42:54.131Z,7.40
2022-08-26T00:43:54.087Z,7.00
2022-08-26T00:44:54.044Z,7.00
2022-08-26T00:45:54.044Z,7.00
2022-08-26T00:46:53.987Z,7.30
2022-08-26T00:47:53.919Z,7.40
2022-08-26T00:48:53.890Z,7.20
2022-08-26T00:49:53.833Z,7.20
2022-08-26T00:50:53.787Z,7.80
2022-08-26T00:51:53.745Z,7.90
2022-08-26T00:52:53.702Z,7.50
2022-08-26T00:53:53.662Z,7.10
2022-08-26T00:54:53.616Z,7.10
2022-08-26T00:55:53.575Z,7.80
2022-08-26T00:56:53.531Z,7.70
2022-08-26T00:57:53.492Z,7.60
2022-08-26T00:58:53.444Z,7.40
2022-08-26T00:59:53.406Z,7.50
2022-08-26T01:00:53.452Z,7.20
2022-08-26T01:01:53.350Z,8.00
2022-08-26T01:02:53.276Z,7.70
2022-08-26T01:03:53.234Z,7.40
2022-08-26T01:04:55.577Z,8.10
2022-08-26T01:05:53.150Z,8.60
2022-08-26T01:06:53.106Z,8.60
2022-08-26T01:07:53.063Z,7.90
2022-08-26T01:08:53.023Z,7.90
2022-08-26T01:09:52.980Z,7.80
2022-08-26T01:10:54.962Z,7.90
2022-08-26T01:11:52.895Z,7.90
2022-08-26T01:12:52.850Z,8.90
2022-08-26T01:13:52.808Z,8.00
2022-08-26T01:14:52.763Z,8.30
2022-08-26T01:15:52.725Z,8.50
2022-08-26T01:16:52.681Z,8.50
2022-08-26T01:17:52.742Z,7.80
2022-08-26T01:18:52.595Z,8.10
2022-08-26T01:19:52.550Z,8.50
2022-08-26T01:20:52.508Z,8.30
2022-08-26T01:21:52.469Z,9.30
2022-08-26T01:22:52.469Z,8.70
2022-08-26T01:23:52.381Z,8.90
2022-08-26T01:24:52.340Z,8.70
2022-08-26T01:25:52.299Z,9.30
2022-08-26T01:26:52.258Z,9.40
2022-08-26T01:27:52.209Z,9.30
2022-08-26T01:28:52.169Z,9.70
2022-08-26T01:29:52.125Z,10.00
2022-08-26T01:30:52.084Z,10.20
2022-08-26T01:31:52.070Z,10.20
2022-08-26T01:32:51.996Z,10.40
2022-08-26T01:33:51.958Z,11.30
2022-08-26T01:34:51.913Z,10.90
2022-08-26T01:35:51.868Z,9.90
2022-08-26T01:36:51.885Z,10.00
2022-08-26T01:37:51.784Z,10.90
2022-08-26T01:38:51.741Z,15.50
2022-08-26T01:39:51.856Z,19.30
2022-08-26T01:40:51.654Z,19.70
2022-08-26T01:41:53.595Z,18.90
2022-08-26T01:42:51.567Z,18.50
2022-08-26T01:43:51.529Z,16.20
2022-08-26T01:44:51.485Z,14.30
2022-08-26T01:45:51.513Z,16.60
2022-08-26T01:46:51.397Z,14.70
2022-08-26T01:47:56.866Z,14.40
2022-08-26T01:48:52.406Z,13.70
2022-08-26T01:49:51.276Z,12.60
2022-08-26T01:50:51.229Z,12.40
2022-08-26T01:51:51.187Z,12.40
2022-08-26T01:52:54.436Z,12.90
2022-08-26T01:53:51.102Z,11.30
2022-08-26T01:54:51.121Z,11.30
2022-08-26T01:55:51.016Z,10.30
2022-08-26T01:56:50.973Z,10.70
2022-08-26T01:57:50.932Z,10.60
2022-08-26T01:58:50.890Z,11.50
2022-08-26T01:59:50.848Z,12.00
2022-08-26T02:00:50.834Z,11.60
2022-08-26T02:01:50.761Z,12.00
2022-08-26T02:02:50.716Z,11.70
2022-08-26T02:03:50.674Z,11.70
2022-08-26T02:04:50.712Z,12.50
2022-08-26T02:05:51.483Z,12.80
2022-08-26T02:06:50.544Z,13.40
2022-08-26T02:07:50.514Z,13.90
2022-08-26T02:08:50.464Z,22.00
2022-08-26T02:09:50.420Z,18.50
2022-08-26T02:10:50.373Z,16.20
2022-08-26T02:11:51.048Z,16.50
2022-08-26T02:12:50.288Z,17.00
2022-08-26T02:13:50.253Z,22.50
2022-08-26T02:14:50.214Z,18.80
2022-08-26T02:15:50.162Z,21.10
2022-08-26T02:16:50.118Z,19.90
2022-08-26T02:17:50.077Z,19.70
2022-08-26T02:18:50.032Z,20.30
2022-08-26T02:19:49.993Z,19.90
2022-08-26T02:20:51.725Z,21.10
2022-08-26T02:21:51.173Z,21.10
2022-08-26T02:22:49.862Z,22.50
2022-08-26T02:23:49.822Z,26.90
2022-08-26T02:24:49.775Z,25.00
2022-08-26T02:25:49.735Z,26.30
2022-08-26T02:26:49.690Z,27.70
2022-08-26T02:27:49.649Z,25.60
2022-08-26T02:28:49.606Z,27.80
2022-08-26T02:29:49.563Z,27.30
2022-08-26T02:30:49.521Z,28.10
2022-08-26T02:31:49.556Z,28.30
2022-08-26T02:32:49.791Z,29.40
2022-08-26T02:33:49.396Z,32.30
2022-08-26T02:34:49.349Z,31.70
2022-08-26T02:35:49.308Z,27.90
2022-08-26T02:36:49.264Z,21.70
2022-08-26T02:37:49.567Z,23.30
2022-08-26T02:38:49.178Z,24.00
2022-08-26T02:39:49.183Z,22.30
2022-08-26T02:40:49.094Z,25.30
2022-08-26T02:41:49.053Z,29.50
2022-08-26T02:42:49.008Z,27.10
2022-08-26T02:43:48.970Z,32.60
2022-08-26T02:44:48.921Z,38.80
2022-08-26T02:45:48.882Z,40.90
2022-08-26T02:46:48.871Z,40.50
2022-08-26T02:47:48.794Z,40.90
2022-08-26T02:48:48.749Z,41.30
2022-08-26T02:49:48.711Z,42.00
2022-08-26T02:50:48.676Z,41.60
2022-08-26T02:51:48.625Z,40.10
2022-08-26T02:52:48.697Z,39.60
2022-08-26T02:53:48.540Z,39.80
2022-08-26T02:54:49.584Z,40.50
2022-08-26T02:56:48.410Z,36.90
2022-08-26T02:57:48.368Z,37.70
2022-08-26T02:58:48.326Z,40.00
2022-08-26T02:59:48.281Z,40.10
2022-08-26T03:00:53.414Z,38.00
2022-08-26T03:01:48.235Z,38.90
2022-08-26T03:02:48.155Z,39.50
2022-08-26T03:03:48.110Z,39.70
2022-08-26T03:04:57.686Z,40.10
2022-08-26T03:05:48.026Z,38.80
2022-08-26T03:06:52.707Z,39.40
2022-08-26T03:07:47.944Z,40.50
2022-08-26T03:08:47.899Z,39.80
2022-08-26T03:09:47.854Z,39.20
2022-08-26T03:10:48.123Z,39.80
2022-08-26T03:11:47.770Z,39.20
2022-08-26T03:12:47.729Z,39.40
2022-08-26T03:13:47.689Z,39.50
2022-08-26T03:14:47.643Z,39.40
2022-08-26T03:15:47.864Z,39.20
2022-08-26T03:16:48.523Z,39.10
2022-08-26T03:17:47.515Z,37.10
2022-08-26T03:18:52.347Z,40.10
2022-08-26T03:19:49.790Z,37.10
2022-08-26T03:20:47.387Z,38.40
2022-08-26T03:21:47.568Z,37.20
2022-08-26T03:22:47.301Z,38.60
2022-08-26T03:23:47.261Z,38.40
2022-08-26T03:24:47.219Z,39.30
2022-08-26T03:25:47.172Z,40.40
2022-08-26T03:26:52.934Z,40.60
2022-08-26T03:27:47.090Z,40.40
2022-08-26T03:28:47.047Z,40.50
2022-08-26T03:29:49.567Z,40.40
2022-08-26T03:30:46.961Z,40.10
2022-08-26T03:31:47.304Z,40.40
2022-08-26T03:32:46.876Z,39.70
2022-08-26T03:33:46.834Z,41.20
2022-08-26T03:34:46.789Z,40.90
2022-08-26T03:35:46.748Z,40.20
2022-08-26T03:36:46.704Z,42.50
2022-08-26T03:37:46.665Z,43.00
2022-08-26T03:38:46.620Z,41.70
2022-08-26T03:39:46.579Z,42.20
2022-08-26T03:40:46.538Z,41.60
2022-08-26T03:41:46.493Z,41.50
2022-08-26T03:42:46.451Z,39.80
2022-08-26T03:43:46.407Z,41.20
2022-08-26T03:44:46.363Z,40.80
2022-08-26T03:45:46.322Z,40.20
2022-08-26T03:46:46.342Z,42.70
2022-08-26T03:47:46.237Z,40.30
2022-08-26T03:48:46.194Z,41.80
2022-08-26T03:49:46.155Z,40.40
2022-08-26T03:50:46.108Z,39.50
2022-08-26T03:51:46.068Z,40.80
2022-08-26T03:52:46.023Z,40.70
2022-08-26T03:53:45.985Z,39.20
2022-08-26T03:54:45.940Z,39.60
2022-08-26T03:55:45.897Z,39.90
2022-08-26T03:56:46.636Z,38.40
2022-08-26T03:57:45.814Z,39.00
2022-08-26T03:58:45.845Z,38.20
2022-08-26T03:59:45.727Z,40.30
2022-08-26T04:00:45.683Z,39.90
2022-08-26T04:01:45.690Z,39.20
2022-08-26T04:02:45.642Z,38.10
2022-08-26T04:03:45.561Z,38.20
2022-08-26T04:04:45.513Z,38.30
2022-08-26T04:05:45.472Z,38.40
2022-08-26T04:06:45.429Z,38.90
2022-08-26T04:07:45.387Z,38.40
2022-08-26T04:08:45.345Z,38.00
2022-08-26T04:09:45.303Z,38.60
2022-08-26T04:10:45.256Z,37.50
2022-08-26T04:11:45.216Z,37.30
2022-08-26T04:12:45.189Z,36.00
2022-08-26T04:13:45.133Z,35.80
2022-08-26T04:14:45.087Z,35.30
2022-08-26T04:15:45.120Z,35.20
2022-08-26T04:16:45.006Z,36.20
2022-08-26T04:17:44.964Z,37.30
2022-08-26T04:18:46.788Z,36.00
2022-08-26T04:19:44.878Z,35.10
2022-08-26T04:20:44.832Z,35.70
2022-08-26T04:21:44.791Z,35.90
2022-08-26T04:22:44.747Z,36.10
2022-08-26T04:23:47.801Z,35.10
2022-08-26T04:24:44.663Z,35.10
2022-08-26T04:25:44.621Z,34.20
2022-08-26T04:26:44.599Z,35.20
2022-08-26T04:27:44.538Z,35.50
2022-08-26T04:28:44.497Z,34.50
2022-08-26T04:29:44.453Z,34.50
2022-08-26T04:30:44.406Z,33.90
2022-08-26T04:31:44.391Z,33.50
2022-08-26T04:32:44.323Z,33.30
2022-08-26T04:33:44.285Z,32.90
2022-08-26T04:34:45.012Z,33.60
2022-08-26T04:35:44.199Z,33.10
2022-08-26T04:36:44.166Z,31.30
2022-08-26T04:37:44.125Z,32.20
2022-08-26T04:38:44.068Z,32.80
2022-08-26T04:39:44.027Z,32.80
2022-08-26T04:40:46.905Z,30.80
2022-08-26T04:41:43.946Z,31.80
2022-08-26T04:42:43.898Z,30.30
2022-08-26T04:43:43.861Z,30.50
2022-08-26T04:44:43.814Z,30.70
2022-08-26T04:45:43.773Z,30.90
2022-08-26T04:46:44.200Z,29.80
2022-08-26T04:47:43.691Z,31.20
2022-08-26T04:48:43.643Z,31.40
2022-08-26T04:49:43.604Z,29.40
2022-08-26T04:50:43.560Z,31.10
2022-08-26T04:51:43.906Z,30.80
2022-08-26T04:52:43.475Z,30.70
2022-08-26T04:53:43.435Z,29.20
2022-08-26T04:54:43.391Z,29.60
2022-08-26T04:55:45.133Z,29.90
2022-08-26T04:56:43.306Z,29.50
2022-08-26T04:57:43.263Z,30.10
2022-08-26T04:58:43.225Z,29.90
2022-08-26T04:59:43.178Z,30.30
2022-08-26T05:00:43.134Z,30.40
2022-08-26T05:01:43.153Z,28.00
2022-08-26T05:02:43.152Z,29.10
2022-08-26T05:03:43.062Z,29.90
2022-08-26T05:04:42.964Z,30.10
2022-08-26T05:05:42.923Z,28.50
2022-08-26T05:06:42.878Z,27.50
2022-08-26T05:07:42.844Z,28.70
2022-08-26T05:08:42.794Z,28.30
2022-08-26T05:09:42.754Z,27.50
2022-08-26T05:10:42.714Z,27.80
2022-08-26T05:11:42.672Z,28.50
2022-08-26T05:12:42.624Z,28.60
2022-08-26T05:13:42.587Z,27.70
2022-08-26T05:14:42.545Z,27.20
2022-08-26T05:15:42.579Z,27.00
2022-08-26T05:16:42.455Z,27.20
2022-08-26T05:17:42.415Z,27.10
2022-08-26T05:18:42.373Z,26.20
2022-08-26T05:19:42.877Z,27.20
2022-08-26T05:20:42.288Z,26.60
2022-08-26T05:21:42.249Z,27.10
2022-08-26T05:22:42.202Z,27.00
2022-08-26T05:23:42.163Z,27.40
2022-08-26T05:24:42.118Z,26.00
2022-08-26T05:25:42.076Z,26.50
2022-08-26T05:26:42.032Z,26.20
2022-08-26T05:27:41.992Z,26.20
2022-08-26T05:28:41.947Z,26.20
2022-08-26T05:29:41.906Z,27.20
2022-08-26T05:30:41.927Z,26.30
2022-08-26T05:31:41.822Z,25.40
2022-08-26T05:32:41.777Z,26.00
2022-08-26T05:33:41.737Z,25.80
2022-08-26T05:34:42.887Z,26.10
2022-08-26T05:35:41.651Z,26.60
2022-08-26T05:36:41.610Z,26.00
2022-08-26T05:37:41.566Z,25.70
2022-08-26T05:38:41.522Z,25.90
2022-08-26T05:39:43.544Z,26.00
2022-08-26T05:40:41.439Z,26.00
2022-08-26T05:41:41.397Z,26.00
2022-08-26T05:42:41.352Z,27.00
2022-08-26T05:43:41.310Z,25.70
2022-08-26T05:44:54.020Z,25.70
2022-08-26T05:45:45.867Z,24.30
2022-08-26T05:46:41.272Z,24.00
2022-08-26T05:47:41.143Z,24.60
2022-08-26T05:48:41.100Z,24.90
2022-08-26T05:49:51.314Z,24.50
2022-08-26T05:50:41.014Z,24.00
2022-08-26T05:51:40.978Z,23.30
2022-08-26T05:52:40.930Z,23.60
2022-08-26T05:53:40.892Z,23.60
2022-08-26T05:54:40.847Z,23.40
2022-08-26T05:55:40.808Z,23.60
2022-08-26T05:56:40.760Z,23.30
2022-08-26T05:57:42.223Z,23.80
2022-08-26T05:58:40.673Z,25.00
2022-08-26T05:59:40.632Z,22.60
2022-08-26T06:00:40.591Z,23.20
2022-08-26T06:01:40.591Z,23.40
2022-08-26T06:02:40.525Z,22.50
2022-08-26T06:03:40.464Z,21.80
2022-08-26T06:04:40.426Z,22.20
2022-08-26T06:05:40.382Z,22.60
2022-08-26T06:06:40.334Z,22.10
2022-08-26T06:07:40.297Z,21.80
2022-08-26T06:08:40.251Z,22.40
2022-08-26T06:09:40.211Z,21.50
2022-08-26T06:10:40.166Z,20.60
2022-08-26T06:11:40.125Z,21.40
2022-08-26T06:12:40.084Z,21.00
2022-08-26T06:13:40.040Z,19.60
2022-08-26T06:14:39.999Z,21.60
2022-08-26T06:15:42.028Z,20.80
2022-08-26T06:16:40.846Z,20.00
2022-08-26T06:17:39.871Z,20.60
2022-08-26T06:18:39.827Z,19.50
2022-08-26T06:19:41.335Z,20.10
2022-08-26T06:20:39.752Z,20.10
2022-08-26T06:21:39.704Z,21.00
2022-08-26T06:22:39.658Z,21.20
2022-08-26T06:23:39.625Z,21.20
2022-08-26T06:24:39.578Z,21.00
2022-08-26T06:25:39.535Z,20.90
2022-08-26T06:26:39.489Z,20.10
2022-08-26T06:29:06.255Z,20.00
2022-08-26T06:30:06.207Z,20.10
2022-08-26T06:31:06.396Z,20.00
2022-08-26T06:32:06.124Z,19.50
2022-08-26T06:33:06.082Z,20.30
2022-08-26T06:34:10.407Z,19.50
2022-08-26T06:35:05.997Z,19.20
2022-08-26T06:36:05.957Z,19.60
2022-08-26T06:37:05.918Z,18.70
2022-08-26T06:38:05.869Z,19.50
2022-08-26T06:39:05.830Z,19.30
2022-08-26T06:40:05.850Z,19.20
2022-08-26T06:41:05.746Z,18.50
2022-08-26T06:42:06.252Z,18.00
2022-08-26T06:43:05.661Z,19.60
2022-08-26T06:44:05.618Z,18.50
2022-08-26T06:45:05.592Z,18.90
2022-08-26T06:46:05.589Z,20.40
2022-08-26T06:47:05.492Z,19.00
2022-08-26T06:48:05.448Z,19.80
2022-08-26T06:49:05.408Z,19.70
2022-08-26T06:50:05.367Z,18.70
2022-08-26T06:51:05.327Z,19.30
2022-08-26T06:52:05.284Z,18.70
2022-08-26T06:53:05.277Z,19.10
2022-08-26T06:54:05.199Z,19.50
2022-08-26T06:55:05.155Z,18.90
2022-08-26T06:56:05.113Z,19.20
2022-08-26T06:57:05.072Z,19.10
2022-08-26T06:58:05.027Z,18.70
2022-08-26T06:59:04.987Z,18.30
2022-08-26T07:00:04.942Z,18.20
2022-08-26T07:01:11.320Z,18.00
2022-08-26T07:02:04.980Z,18.10
2022-08-26T07:03:04.943Z,17.40
2022-08-26T07:04:04.776Z,18.20
2022-08-26T07:05:04.739Z,17.70
2022-08-26T07:06:04.690Z,19.00
2022-08-26T07:07:04.651Z,18.40
2022-08-26T07:08:04.607Z,18.70
2022-08-26T07:09:04.567Z,19.60
2022-08-26T07:10:04.521Z,20.40
2022-08-26T07:11:04.479Z,21.50
2022-08-26T07:12:04.439Z,23.60
2022-08-26T07:13:05.775Z,22.10
2022-08-26T07:14:04.355Z,20.90
2022-08-26T07:15:04.312Z,22.50
2022-08-26T07:16:04.373Z,22.00
2022-08-26T07:17:04.237Z,20.90
2022-08-26T07:18:04.183Z,20.20
2022-08-26T07:19:10.591Z,20.30
2022-08-26T07:20:04.102Z,19.80
2022-08-26T07:21:04.061Z,19.40
2022-08-26T07:22:04.138Z,20.40
2022-08-26T07:23:03.974Z,19.70
2022-08-26T07:24:03.934Z,19.30
2022-08-26T07:25:03.891Z,18.90
2022-08-26T07:26:03.845Z,19.00
2022-08-26T07:27:03.804Z,18.40
2022-08-26T07:28:03.763Z,19.70
2022-08-26T07:29:03.722Z,18.70
2022-08-26T07:30:03.677Z,18.50
2022-08-26T07:31:03.720Z,19.10
2022-08-26T07:32:03.594Z,17.80
2022-08-26T07:33:03.557Z,18.50
2022-08-26T07:34:03.508Z,18.90
2022-08-26T07:35:03.468Z,20.10
2022-08-26T07:36:04.277Z,20.00
2022-08-26T07:37:03.385Z,20.50
2022-08-26T07:38:03.339Z,21.30
2022-08-26T07:39:03.300Z,25.40
2022-08-26T07:40:03.317Z,26.90
2022-08-26T07:41:03.216Z,26.40
2022-08-26T07:42:08.042Z,27.40
2022-08-26T07:43:03.131Z,24.20
2022-08-26T07:44:03.095Z,24.00
2022-08-26T07:45:03.048Z,21.70
2022-08-26T07:46:03.007Z,21.20
2022-08-26T07:47:02.963Z,20.80
2022-08-26T07:48:04.014Z,17.50
2022-08-26T07:49:02.896Z,16.60
2022-08-26T07:50:02.842Z,16.20
2022-08-26T07:51:02.796Z,15.30
2022-08-26T07:52:02.752Z,15.20
2022-08-26T07:53:02.711Z,15.10
2022-08-26T07:54:02.668Z,14.20
2022-08-26T07:55:02.627Z,15.50
2022-08-26T07:56:02.584Z,14.50
2022-08-26T07:57:05.133Z,14.10
2022-08-26T07:58:02.501Z,13.40
2022-08-26T07:59:02.460Z,13.60
2022-08-26T08:00:02.415Z,14.80
2022-08-26T08:01:02.409Z,13.50
2022-08-26T08:02:02.332Z,13.40
2022-08-26T08:03:02.323Z,13.10
2022-08-26T08:04:02.340Z,13.50
2022-08-26T08:05:02.296Z,14.50
2022-08-26T08:06:02.162Z,13.30
2022-08-26T08:07:02.125Z,11.60
2022-08-26T08:08:26.889Z,12.50
2022-08-26T08:09:02.041Z,12.80
2022-08-26T08:10:03.781Z,12.50
2022-08-26T08:11:01.957Z,12.30
2022-08-26T08:12:01.913Z,12.40
2022-08-26T08:13:01.900Z,12.60
2022-08-26T08:14:01.827Z,12.30
2022-08-26T08:15:01.787Z,12.10
2022-08-26T08:16:01.749Z,11.80
2022-08-26T08:17:01.848Z,10.80
2022-08-26T08:18:01.846Z,10.60
2022-08-26T08:19:01.618Z,11.10
2022-08-26T08:20:01.578Z,11.30
2022-08-26T08:21:21.418Z,10.80
2022-08-26T08:22:01.490Z,9.70
2022-08-26T08:23:01.455Z,10.00
2022-08-26T08:24:01.406Z,9.40
2022-08-26T08:25:01.366Z,9.50
2022-08-26T08:26:01.322Z,10.10
2022-08-26T08:27:01.290Z,9.70
2022-08-26T08:28:01.240Z,10.10
2022-08-26T08:29:01.199Z,9.10
2022-08-26T08:30:01.154Z,9.40
2022-08-26T08:31:01.153Z,10.00
2022-08-26T08:32:01.106Z,9.50
2022-08-26T08:33:01.031Z,9.80
2022-08-26T08:34:00.986Z,9.70
2022-08-26T08:35:00.946Z,9.20
2022-08-26T08:36:00.905Z,9.40
2022-08-26T08:37:00.864Z,9.50
2022-08-26T08:38:00.819Z,9.80
2022-08-26T08:39:00.782Z,10.00
2022-08-26T08:40:00.816Z,9.90
2022-08-26T08:41:00.699Z,9.70
2022-08-26T08:42:00.657Z,9.60
2022-08-26T08:43:00.615Z,9.70
2022-08-26T08:44:00.570Z,8.70
2022-08-26T08:45:00.527Z,8.60
2022-08-26T08:46:00.515Z,8.20
2022-08-26T08:47:00.444Z,8.90
2022-08-26T08:48:00.400Z,8.90
2022-08-26T08:49:00.362Z,8.90
2022-08-26T08:50:00.314Z,8.50
2022-08-26T08:51:00.275Z,8.10
2022-08-26T08:52:00.235Z,7.60
2022-08-26T08:53:00.192Z,7.60
2022-08-26T08:54:00.154Z,7.50
2022-08-26T08:55:00.115Z,7.80
2022-08-26T08:56:00.068Z,7.30
2022-08-26T08:57:00.024Z,7.70
2022-08-26T08:58:02.280Z,7.30
2022-08-26T08:58:59.943Z,6.90
2022-08-26T08:59:59.898Z,6.50
2022-08-26T09:00:59.915Z,6.10
2022-08-26T09:01:59.827Z,6.30
2022-08-26T09:02:59.774Z,6.30
2022-08-26T09:03:59.729Z,6.10
2022-08-26T09:04:59.718Z,6.10
2022-08-26T09:05:59.653Z,6.70
2022-08-26T09:06:59.608Z,6.00
2022-08-26T09:07:59.564Z,6.00
2022-08-26T09:08:59.523Z,6.50
2022-08-26T09:09:59.476Z,6.50
2022-08-26T09:10:59.446Z,6.50
2022-08-26T09:11:59.395Z,6.40
2022-08-26T09:12:59.355Z,6.80
2022-08-26T09:14:00.341Z,5.90
2022-08-26T09:14:59.272Z,6.70
2022-08-26T09:15:59.227Z,6.50
2022-08-26T09:16:59.292Z,5.90
2022-08-26T09:17:59.143Z,6.40
2022-08-26T09:18:59.105Z,6.20
2022-08-26T09:19:59.061Z,6.70
2022-08-26T09:20:59.019Z,6.80
2022-08-26T09:21:58.977Z,6.90
2022-08-26T09:22:58.938Z,6.60
2022-08-26T09:23:58.900Z,6.10
2022-08-26T09:24:58.855Z,6.70
2022-08-26T09:25:58.834Z,7.10
2022-08-26T09:26:58.770Z,6.60
2022-08-26T09:27:58.727Z,7.20
2022-08-26T09:28:58.686Z,6.50
2022-08-26T09:29:58.642Z,6.40
2022-08-26T09:30:58.668Z,6.20
2022-08-26T09:31:58.558Z,6.10
2022-08-26T09:32:58.521Z,6.00
2022-08-26T09:33:58.475Z,6.30
2022-08-26T09:34:58.439Z,5.50
2022-08-26T09:35:58.391Z,5.70
2022-08-26T09:36:58.350Z,6.00
2022-08-26T09:37:58.310Z,6.20
2022-08-26T09:38:58.269Z,5.70
2022-08-26T09:39:58.270Z,5.80
2022-08-26T09:40:59.046Z,5.40
2022-08-26T09:41:58.139Z,5.50
2022-08-26T09:42:58.103Z,5.60
2022-08-26T09:43:58.057Z,5.60
2022-08-26T09:44:58.016Z,5.50
2022-08-26T09:45:59.746Z,5.60
2022-08-26T09:46:57.965Z,6.30
2022-08-26T09:47:57.888Z,5.70
2022-08-26T09:48:57.848Z,5.50
2022-08-26T09:49:57.805Z,6.20
2022-08-26T09:50:57.765Z,5.50
2022-08-26T09:51:57.724Z,6.20
2022-08-26T09:52:57.684Z,6.10
2022-08-26T09:53:57.640Z,6.10
2022-08-26T09:54:57.599Z,5.90
2022-08-26T09:55:57.569Z,6.50
2022-08-26T09:56:57.518Z,6.60
2022-08-26T09:57:59.929Z,6.70
2022-08-26T09:58:57.435Z,5.70
2022-08-26T09:59:57.390Z,5.70
2022-08-26T10:00:57.420Z,5.30
2022-08-26T10:01:57.398Z,5.40
2022-08-26T10:02:58.105Z,5.20
2022-08-26T10:03:57.237Z,5.40
2022-08-26T10:04:57.185Z,5.70
2022-08-26T10:05:57.140Z,5.40
2022-08-26T10:06:57.099Z,5.40
2022-08-26T10:07:57.057Z,5.00
2022-08-26T10:08:57.018Z,5.00
2022-08-26T10:09:56.973Z,5.60
2022-08-26T10:10:56.936Z,5.30
2022-08-26T10:11:56.891Z,5.90
2022-08-26T10:12:56.854Z,5.10
2022-08-26T10:13:56.807Z,5.30
2022-08-26T10:14:56.770Z,5.30
2022-08-26T10:15:56.725Z,5.40
2022-08-26T10:16:56.739Z,5.20
2022-08-26T10:17:56.642Z,4.60
2022-08-26T10:18:59.971Z,4.70
2022-08-26T10:19:57.719Z,4.40
2022-08-26T10:20:56.520Z,5.10
2022-08-26T10:21:56.476Z,4.60
2022-08-26T10:22:56.437Z,4.60
2022-08-26T10:23:56.397Z,5.20
2022-08-26T10:24:56.357Z,4.50
2022-08-26T10:25:59.095Z,5.10
2022-08-26T10:26:56.270Z,4.80
2022-08-26T10:27:56.230Z,4.50
2022-08-26T10:28:56.187Z,4.60
2022-08-26T10:29:56.147Z,4.70
2022-08-26T10:30:56.109Z,4.60
2022-08-26T10:32:02.396Z,4.40
2022-08-26T10:32:56.022Z,4.30
2022-08-26T10:33:58.800Z,4.10
2022-08-26T10:34:55.939Z,4.80
2022-08-26T10:35:55.897Z,4.50
2022-08-26T10:37:16.034Z,4.00
2022-08-26T10:37:55.814Z,4.00
2022-08-26T10:38:55.775Z,4.60
2022-08-26T10:39:58.635Z,4.20
2022-08-26T10:40:55.690Z,4.50
2022-08-26T10:41:55.645Z,4.10
2022-08-26T10:42:55.610Z,4.20
2022-08-26T10:43:55.569Z,4.70
2022-08-26T10:44:58.725Z,4.60
2022-08-26T10:45:55.563Z,4.20
2022-08-26T10:46:55.438Z,4.40
2022-08-26T10:47:55.400Z,4.10
2022-08-26T10:48:55.359Z,4.40
2022-08-26T10:50:00.026Z,4.30
2022-08-26T10:50:55.273Z,4.20
2022-08-26T10:51:55.236Z,4.10
2022-08-26T10:52:55.190Z,4.00
2022-08-26T10:53:55.149Z,4.40
2022-08-26T10:54:55.107Z,4.10
2022-08-26T10:55:55.066Z,4.00
2022-08-26T10:56:55.028Z,4.30
2022-08-26T10:57:54.989Z,4.20
2022-08-26T10:58:54.941Z,4.80
2022-08-26T10:59:54.900Z,4.70
2022-08-26T11:00:54.910Z,4.60
2022-08-26T11:01:54.817Z,4.90
2022-08-26T11:02:54.776Z,5.00
2022-08-26T11:03:54.806Z,4.10
2022-08-26T11:04:54.693Z,4.30
2022-08-26T11:05:54.663Z,4.70
2022-08-26T11:06:54.610Z,4.40
2022-08-26T11:07:54.875Z,4.60
2022-08-26T11:08:54.527Z,4.40
2022-08-26T11:09:54.487Z,4.80
2022-08-26T11:10:54.444Z,4.80
2022-08-26T11:11:54.440Z,4.30
2022-08-26T11:12:54.378Z,4.90
2022-08-26T11:13:54.319Z,4.80
2022-08-26T11:14:59.181Z,4.40
2022-08-26T11:15:54.237Z,4.70
2022-08-26T11:16:54.248Z,4.80
2022-08-26T11:17:54.154Z,4.80
2022-08-26T11:18:54.112Z,4.40
2022-08-26T11:20:54.028Z,4.80
2022-08-26T11:21:53.985Z,4.50
2022-08-26T11:22:53.945Z,4.60
2022-08-26T11:23:53.906Z,4.40
2022-08-26T11:24:53.867Z,4.80
2022-08-26T11:25:53.819Z,5.10
2022-08-26T11:26:55.237Z,5.00
2022-08-26T11:27:53.738Z,5.10
2022-08-26T11:28:53.701Z,4.50
2022-08-26T11:29:53.662Z,5.10
2022-08-26T11:30:58.199Z,5.10
2022-08-26T11:31:53.640Z,4.70
2022-08-26T11:32:53.530Z,5.00
2022-08-26T11:33:54.137Z,4.90
2022-08-26T11:34:53.449Z,4.40
2022-08-26T11:35:53.407Z,4.80
2022-08-26T11:36:53.365Z,4.80
2022-08-26T11:37:53.323Z,5.00
2022-08-26T11:39:55.385Z,4.80
2022-08-26T11:40:53.200Z,4.70
2022-08-26T11:41:53.157Z,5.00
2022-08-26T11:42:53.115Z,4.90
2022-08-26T11:43:53.076Z,5.10
2022-08-26T11:44:53.032Z,4.30
2022-08-26T11:45:53.035Z,4.10
2022-08-26T11:46:52.949Z,4.20
2022-08-26T11:47:52.910Z,4.40
2022-08-26T11:48:52.869Z,4.10
2022-08-26T11:49:52.833Z,4.40
2022-08-26T11:50:52.786Z,4.20
2022-08-26T11:51:52.747Z,4.40
2022-08-26T11:52:52.703Z,4.90
2022-08-26T11:53:52.660Z,4.30
2022-08-26T11:54:52.618Z,4.90
2022-08-26T11:55:52.580Z,4.60
2022-08-26T11:56:52.542Z,4.80
2022-08-26T11:57:52.497Z,4.30
2022-08-26T11:58:52.456Z,4.70
2022-08-26T11:59:52.414Z,4.90
2022-08-26T12:00:52.372Z,4.70
2022-08-26T12:01:52.335Z,4.90
2022-08-26T12:02:52.515Z,4.20
2022-08-26T12:03:52.324Z,4.30
2022-08-26T12:04:52.206Z,4.60
2022-08-26T12:05:52.165Z,4.20
2022-08-26T12:06:52.142Z,4.40
2022-08-26T12:07:53.070Z,4.30
2022-08-26T12:08:52.048Z,4.60
2022-08-26T12:09:52.003Z,4.20
2022-08-26T12:10:51.958Z,4.80
2022-08-26T12:11:51.919Z,3.70
2022-08-26T12:12:51.876Z,4.10
2022-08-26T12:13:51.834Z,3.50
2022-08-26T12:14:51.793Z,3.30
2022-08-26T12:15:51.752Z,3.10
2022-08-26T12:16:51.767Z,3.30
2022-08-26T12:17:54.298Z,3.90
2022-08-26T12:18:51.628Z,3.20
2022-08-26T12:19:51.587Z,3.50
2022-08-26T12:20:51.557Z,3.90
2022-08-26T12:21:51.504Z,4.00
2022-08-26T12:22:51.464Z,3.40
2022-08-26T12:23:51.423Z,3.80
2022-08-26T12:24:51.380Z,3.60
2022-08-26T12:25:51.340Z,4.00
2022-08-26T12:26:51.296Z,3.30
2022-08-26T12:27:53.693Z,3.80
2022-08-26T12:28:51.217Z,3.40
2022-08-26T12:29:51.184Z,4.00
2022-08-26T12:30:51.130Z,4.10
2022-08-26T12:31:51.161Z,4.10
2022-08-26T12:32:58.153Z,3.90
2022-08-26T12:33:51.009Z,3.90
2022-08-26T12:34:50.965Z,3.70
2022-08-26T12:35:54.820Z,3.60
2022-08-26T12:36:50.922Z,3.90
2022-08-26T12:37:50.842Z,3.90
2022-08-26T12:38:50.800Z,3.70
2022-08-26T12:39:50.792Z,3.60
2022-08-26T12:40:50.723Z,3.80
2022-08-26T12:41:50.677Z,4.00
2022-08-26T12:42:50.636Z,4.10
2022-08-26T12:43:50.596Z,3.70
2022-08-26T12:44:54.302Z,3.50
2022-08-26T12:45:50.608Z,3.90
2022-08-26T12:46:50.468Z,3.90
2022-08-26T12:47:50.429Z,3.90
2022-08-26T12:48:50.387Z,4.20
2022-08-26T12:49:50.347Z,4.30
2022-08-26T12:50:50.308Z,4.00
2022-08-26T12:51:50.266Z,4.40
2022-08-26T12:52:50.221Z,3.80
2022-08-26T12:53:50.181Z,4.20
2022-08-26T12:54:53.563Z,4.50
2022-08-26T12:55:50.101Z,4.30
2022-08-26T12:56:50.058Z,4.20
2022-08-26T12:57:50.015Z,4.20
2022-08-26T12:58:50.041Z,4.30
2022-08-26T12:59:49.939Z,4.60
2022-08-26T13:00:50.082Z,4.10
2022-08-26T13:01:50.068Z,4.40
2022-08-26T13:02:49.807Z,3.80
2022-08-26T13:03:49.769Z,4.70
2022-08-26T13:04:49.727Z,4.20
2022-08-26T13:05:49.685Z,4.00
2022-08-26T13:06:49.643Z,4.30
2022-08-26T13:07:49.647Z,4.10
2022-08-26T13:08:49.561Z,4.10